»·PEaware :: DAL1672 KJAC-KMFR

DAL1672 :: KJAC-KMFR

FLIGHT INFORMATION

Flight Status: Arrived
Operator:
Delta Air Lines
More flights by this operator :: More flights under this callsign
Pilot: Chuck O. (4337)
Aircraft: AIRBUS A320
(A320)
More flights by this aircraft type
Origin: KJAC Jackson Hole
United States
Destination: KMFR Rogue Valley Intl-Medford
United States
More flights between these airports :: More routes between these airports
Route: ALPIN2 IDA OED
File this flight plan on PilotEdge
Remarks:
Altitude:
(Current/Filed)
38,000ft
Speed:
(Current/Filed)
458kts
Departed: 03-Aug-18 10:14 AM
Arrived: 03-Aug-18 11:51 AM
Distance/Time
Traveled:
537nm/1:37
Distance/Time
To Go:
Arrived

Flight Plot

Page will automatically refresh every two minutes.

Flight plan parsing failed; only flown route is shown


Map Options




Map Legend


Flown Route
Filed Route
Departure Airport
Arrival Airport
Navaid (VOR, NDB)
Fix

Horizontal Profiles

Position Reports

Time Latitude Longitude Heading Altitude Ground
Speed
03-Aug-18 09:46 43.604256 -110.736686 109 6465ft 0kts
03-Aug-18 09:47 43.604256 -110.736686 109 6465ft 0kts
03-Aug-18 09:48 43.604256 -110.736686 109 6465ft 0kts
03-Aug-18 09:49 43.604256 -110.736686 109 6465ft 0kts
03-Aug-18 09:50 43.604256 -110.736686 109 6465ft 0kts
03-Aug-18 09:51 43.604256 -110.736686 109 6465ft 0kts
03-Aug-18 09:52 43.604256 -110.736686 109 6465ft 0kts
03-Aug-18 09:53 43.604256 -110.736686 109 6465ft 0kts
03-Aug-18 09:54 43.604256 -110.736686 109 6465ft 0kts
03-Aug-18 09:55 43.604256 -110.736686 109 6465ft 0kts
03-Aug-18 09:56 43.604256 -110.736686 109 6465ft 0kts
03-Aug-18 09:57 43.604256 -110.736686 109 6465ft 0kts
03-Aug-18 09:58 43.604256 -110.736686 109 6465ft 0kts
03-Aug-18 09:59 43.604256 -110.736686 109 6465ft 0kts
03-Aug-18 10:00 43.604256 -110.736686 109 6465ft 0kts
03-Aug-18 10:01 43.604256 -110.736686 109 6465ft 0kts
03-Aug-18 10:02 43.604256 -110.736686 109 6465ft 0kts
03-Aug-18 10:03 43.604268 -110.736734 109 6465ft 1kts
03-Aug-18 10:04 43.604481 -110.737566 108 6465ft 0kts
03-Aug-18 10:05 43.604481 -110.737566 108 6465ft 0kts
03-Aug-18 10:06 43.604480 -110.737565 108 6465ft 0kts
03-Aug-18 10:07 43.604480 -110.737565 108 6465ft 0kts
03-Aug-18 10:08 43.604480 -110.737564 108 6465ft 0kts
03-Aug-18 10:09 43.604469 -110.737430 82 6465ft 1kts
03-Aug-18 10:10 43.604726 -110.737198 359 6465ft 0kts
03-Aug-18 10:11 43.610077 -110.734824 20 6465ft 33kts
03-Aug-18 10:12 43.614746 -110.732538 336 6465ft 0kts
03-Aug-18 10:13 43.614746 -110.732538 336 6465ft 0kts
03-Aug-18 10:14 43.614838 -110.732601 332 6465ft 8kts
03-Aug-18 10:15 43.607516 -110.737700 199 6465ft 133kts
03-Aug-18 10:16 43.557648 -110.768298 211 8678ft 245kts
03-Aug-18 10:17 43.485983 -110.813389 207 11091ft 307kts
03-Aug-18 10:18 43.402568 -110.868187 207 13250ft 343kts
03-Aug-18 10:19 43.315455 -110.924796 208 15948ft 353kts
03-Aug-18 10:20 43.242601 -111.008465 251 18334ft 357kts
03-Aug-18 10:21 43.261849 -111.141724 289 20577ft 374kts
03-Aug-18 10:22 43.300638 -111.276732 287 22550ft 384kts
03-Aug-18 10:23 43.339446 -111.414953 287 23968ft 391kts
03-Aug-18 10:24 43.378793 -111.555822 287 25676ft 399kts
03-Aug-18 10:25 43.418786 -111.699747 286 27245ft 406kts
03-Aug-18 10:26 43.459249 -111.846064 286 28650ft 413kts
03-Aug-18 10:27 43.500102 -111.995011 286 29923ft 420kts
03-Aug-18 10:28 43.515475 -112.151908 262 31167ft 413kts
03-Aug-18 10:29 43.506291 -112.308780 263 32688ft 408kts
03-Aug-18 10:30 43.498395 -112.463903 262 34103ft 402kts
03-Aug-18 10:31 43.490165 -112.616615 263 35262ft 399kts
03-Aug-18 10:32 43.481823 -112.767561 262 36215ft 396kts
03-Aug-18 10:33 43.473341 -112.918360 263 37002ft 395kts
03-Aug-18 10:34 43.464566 -113.069381 262 37688ft 394kts
03-Aug-18 10:35 43.455708 -113.219463 263 38129ft 396kts
03-Aug-18 10:36 43.446474 -113.371664 262 38126ft 395kts
03-Aug-18 10:37 43.437175 -113.522358 262 38128ft 395kts
03-Aug-18 10:38 43.427676 -113.672605 262 38135ft 395kts
03-Aug-18 10:39 43.417965 -113.823499 262 38161ft 394kts
03-Aug-18 10:40 43.408091 -113.973493 262 38172ft 394kts
03-Aug-18 10:41 43.397981 -114.124116 262 38135ft 395kts
03-Aug-18 10:42 43.387729 -114.274225 262 38171ft 395kts
03-Aug-18 10:43 43.377181 -114.424615 262 38185ft 395kts
03-Aug-18 10:44 43.366482 -114.575028 262 38172ft 395kts
03-Aug-18 10:45 43.355597 -114.724951 262 38184ft 395kts
03-Aug-18 10:46 43.344511 -114.875278 262 38181ft 395kts
03-Aug-18 10:47 43.333252 -115.025632 262 38156ft 396kts
03-Aug-18 10:48 43.321746 -115.176088 262 38166ft 395kts
03-Aug-18 10:49 43.309972 -115.326462 262 38154ft 396kts
03-Aug-18 10:50 43.298227 -115.475165 262 38144ft 396kts
03-Aug-18 10:51 43.286126 -115.625209 262 38138ft 396kts
03-Aug-18 10:52 43.273825 -115.775942 262 38136ft 396kts
03-Aug-18 10:53 43.261519 -115.924017 262 38129ft 396kts
03-Aug-18 10:54 43.248676 -116.075717 262 38135ft 396kts
03-Aug-18 10:55 43.235855 -116.225110 262 38136ft 395kts
03-Aug-18 10:56 43.222783 -116.375092 262 38132ft 394kts
03-Aug-18 10:57 43.209606 -116.523897 262 38130ft 393kts
03-Aug-18 10:58 43.196273 -116.672715 262 38121ft 392kts
03-Aug-18 10:59 43.182742 -116.820939 262 38133ft 391kts
03-Aug-18 11:00 43.169038 -116.968835 262 38115ft 391kts
03-Aug-18 11:01 43.155267 -117.116230 262 38095ft 391kts
03-Aug-18 11:02 43.141136 -117.263644 262 38119ft 390kts
03-Aug-18 11:03 43.126899 -117.411353 262 38101ft 390kts
03-Aug-18 11:04 43.112510 -117.558320 262 38095ft 390kts
03-Aug-18 11:05 43.097968 -117.704913 262 38128ft 389kts
03-Aug-18 11:06 43.083182 -117.852094 262 38112ft 389kts
03-Aug-18 11:07 43.068259 -117.998769 261 38116ft 389kts
03-Aug-18 11:08 43.053200 -118.144878 262 38197ft 387kts
03-Aug-18 11:09 43.038038 -118.290331 261 38213ft 386kts
03-Aug-18 11:10 43.022733 -118.435105 261 38216ft 386kts
03-Aug-18 11:11 43.007109 -118.580260 262 38215ft 383kts
03-Aug-18 11:12 42.994136 -118.699819 262 38216ft 381kts
03-Aug-18 11:13 42.975883 -118.866742 262 38141ft 380kts
03-Aug-18 11:14 42.960097 -119.008910 262 38144ft 380kts
03-Aug-18 11:15 42.944400 -119.149029 261 38173ft 381kts
03-Aug-18 11:16 42.930531 -119.271276 261 38236ft 381kts
03-Aug-18 11:17 42.911435 -119.437320 261 38242ft 381kts
03-Aug-18 11:18 42.894914 -119.580169 261 38247ft 380kts
03-Aug-18 11:19 42.880966 -119.698530 261 38249ft 378kts
03-Aug-18 11:20 42.864160 -119.840014 261 38216ft 378kts
03-Aug-18 11:21 42.847317 -119.980853 261 38218ft 377kts
03-Aug-18 11:22 42.827300 -120.145525 261 38222ft 375kts
03-Aug-18 11:23 42.813031 -120.262064 260 38181ft 376kts
03-Aug-18 11:24 42.795653 -120.402176 260 38182ft 375kts
03-Aug-18 11:25 42.778230 -120.541666 260 38187ft 372kts
03-Aug-18 11:26 42.760654 -120.680934 260 37578ft 374kts
03-Aug-18 11:27 42.742879 -120.820241 260 36588ft 374kts
03-Aug-18 11:28 42.724909 -120.959539 260 35400ft 373kts
03-Aug-18 11:29 42.707113 -121.096365 260 33292ft 359kts
03-Aug-18 11:30 42.689737 -121.228251 259 31270ft 357kts
03-Aug-18 11:31 42.672018 -121.362169 259 29232ft 361kts
03-Aug-18 11:32 42.654292 -121.494383 259 27207ft 349kts
03-Aug-18 11:33 42.637161 -121.621187 258 25254ft 333kts
03-Aug-18 11:34 42.620078 -121.746447 258 23186ft 338kts
03-Aug-18 11:35 42.603105 -121.870103 258 21289ft 327kts
03-Aug-18 11:36 42.586613 -121.989076 258 19578ft 317kts
03-Aug-18 11:37 42.570403 -122.105099 258 17964ft 308kts
03-Aug-18 11:38 42.553995 -122.221822 258 16396ft 322kts
03-Aug-18 11:39 42.536988 -122.341054 258 14791ft 320kts
03-Aug-18 11:40 42.520216 -122.459374 264 14010ft 319kts
03-Aug-18 11:41 42.558875 -122.566188 304 13500ft 324kts
03-Aug-18 11:42 42.611947 -122.662264 304 12108ft 313kts
03-Aug-18 11:43 42.661542 -122.753927 304 10707ft 290kts
03-Aug-18 11:44 42.705279 -122.843485 284 9281ft 282kts
03-Aug-18 11:45 42.688476 -122.943469 232 7999ft 274kts
03-Aug-18 11:46 42.640508 -123.008296 189 7363ft 229kts
03-Aug-18 11:47 42.581687 -122.981322 160 6370ft 224kts
03-Aug-18 11:48 42.526043 -122.952251 159 4244ft 228kts
03-Aug-18 11:49 42.470817 -122.923543 159 3123ft 198kts
03-Aug-18 11:50 42.425254 -122.899608 159 2200ft 150kts
03-Aug-18 11:51 42.387842 -122.879974 158 1427ft 144kts
03-Aug-18 11:52 42.366330 -122.868648 159 1349ft 22kts
03-Aug-18 11:53 42.363648 -122.868289 259 1349ft 0kts
03-Aug-18 11:54 42.364179 -122.869141 344 1349ft 22kts
03-Aug-18 11:55 42.367909 -122.871062 340 1349ft 13kts
03-Aug-18 11:56 42.368184 -122.872902 249 1349ft 0kts
03-Aug-18 11:57 42.368176 -122.872932 250 1349ft 0kts
03-Aug-18 11:58 42.368176 -122.872932 250 1349ft 0kts
03-Aug-18 11:59 42.368176 -122.872932 250 1349ft 0kts
03-Aug-18 12:00 42.368176 -122.872932 250 1349ft 0kts
03-Aug-18 12:01 42.368176 -122.872932 250 1349ft 0kts
03-Aug-18 12:02 42.368176 -122.872932 250 1349ft 0kts
03-Aug-18 12:03 42.368176 -122.872932 250 1349ft 0kts
03-Aug-18 12:04 42.368176 -122.872932 250 1349ft 0kts
03-Aug-18 12:05 42.368176 -122.872932 250 1349ft 0kts
03-Aug-18 12:06 42.368176 -122.872932 250 1349ft 0kts
03-Aug-18 12:07 42.368176 -122.872932 250 1349ft 0kts

Navigation Log

Ident Type
Flight plan parsing failed, navigation log unavailable